Time;durP1;ratioP1;P1;durP2;ratioP2;P2;SDS_P1;SDS_P2;PMS_P1;PMS_P2;Temp;Humidity;BMP_temperature;BMP_pressure;BME280_temperature;BME280_humidity;BME280_pressure;Samples;Min_cycle;Max_cycle;Signal;HPM_P1;HPM_P2
2021/11/18 00:00:39;;;;;;;;;;;4.80;99.90;;;;;;8394013;28;20042;-65
2021/11/18 00:04:40;;;;;;;;;;;4.70;99.90;;;;;;8395176;28;19912;-64
2021/11/18 00:08:40;;;;;;;;;;;4.80;99.90;;;;;;8410892;28;19913;-65
2021/11/18 00:12:41;;;;;;;;;;;4.80;99.90;;;;;;8426367;28;19944;-64
2021/11/18 00:16:41;;;;;;;;;;;4.90;99.90;;;;;;8402945;28;19916;-64
2021/11/18 00:20:44;;;;;;;;;;;4.80;99.90;;;;;;8428156;28;19914;-64
2021/11/18 00:24:45;;;;;;;;;;;4.70;99.90;;;;;;8428293;28;20285;-65
2021/11/18 00:28:46;;;;;;;;;;;4.80;99.90;;;;;;8409413;28;20007;-64
2021/11/18 00:32:46;;;;;;;;;;;4.80;99.90;;;;;;8410003;28;20297;-64
2021/11/18 00:36:47;;;;;;;;;;;4.90;99.90;;;;;;8427590;28;19958;-64
2021/11/18 00:40:49;;;;;;;;;;;4.90;99.90;;;;;;8427752;28;19919;-64
2021/11/18 00:44:52;;;;;;;;;;;4.90;99.90;;;;;;8418708;28;19942;-65
2021/11/18 00:48:53;;;;;;;;;;;4.80;99.90;;;;;;8427255;28;19915;-64
2021/11/18 00:52:53;;;;;;;;;;;4.90;99.90;;;;;;8427389;28;20285;-64
2021/11/18 00:56:55;;;;;;;;;;;5.00;99.90;;;;;;8422398;28;19915;-65
2021/11/18 01:00:55;;;;;;;;;;;4.80;99.90;;;;;;8408921;28;19912;-65
2021/11/18 01:04:55;;;;;;;;;;;4.80;99.90;;;;;;8427230;28;19919;-65
2021/11/18 01:08:56;;;;;;;;;;;4.80;99.90;;;;;;8426241;28;19909;-65
2021/11/18 01:12:56;;;;;;;;;;;4.70;99.90;;;;;;8419149;28;19912;-65
2021/11/18 01:16:57;;;;;;;;;;;5.00;99.90;;;;;;8424666;28;20479;-65
2021/11/18 01:20:58;;;;;;;;;;;4.80;99.90;;;;;;8427190;28;19963;-65
2021/11/18 01:24:59;;;;;;;;;;;4.90;99.90;;;;;;8426048;28;19970;-65
2021/11/18 01:29:01;;;;;;;;;;;5.00;99.90;;;;;;8425786;28;19912;-65
2021/11/18 01:33:03;;;;;;;;;;;4.90;99.90;;;;;;8426064;28;19908;-64
2021/11/18 01:37:03;;;;;;;;;;;4.80;99.90;;;;;;8425183;28;19908;-65
2021/11/18 01:41:06;;;;;;;;;;;4.70;99.90;;;;;;8426314;28;19915;-65
2021/11/18 01:45:08;;;;;;;;;;;4.80;99.90;;;;;;8417682;28;19919;-64
2021/11/18 01:49:10;;;;;;;;;;;4.80;99.90;;;;;;8425422;28;19962;-64
2021/11/18 01:53:15;;;;;;;;;;;4.80;99.90;;;;;;8425869;28;19935;-65
2021/11/18 01:57:22;;;;;;;;;;;5.00;99.90;;;;;;8391302;28;19913;-65
2021/11/18 02:01:24;;;;;;;;;;;5.10;99.90;;;;;;8392143;28;19912;-65
2021/11/18 02:05:26;;;;;;;;;;;5.10;99.90;;;;;;8392363;28;20420;-65
2021/11/18 02:09:28;;;;;;;;;;;5.00;99.90;;;;;;8374439;28;19912;-65
2021/11/18 02:13:28;;;;;;;;;;;5.00;99.90;;;;;;8397847;28;19913;-65
2021/11/18 02:22:07;;;;;;;;;;;4.70;99.90;;;;;;8408992;28;20309;-65
2021/11/18 02:26:07;;;;;;;;;;;4.80;99.90;;;;;;8437731;28;19916;-65
2021/11/18 02:30:09;;;;;;;;;;;4.90;99.90;;;;;;8464655;28;19919;-65
2021/11/18 02:34:12;;;;;;;;;;;4.90;99.90;;;;;;8465654;28;19961;-65
2021/11/18 02:38:13;;;;;;;;;;;4.80;99.90;;;;;;8463960;28;20011;-65
2021/11/18 02:42:15;;;;;;;;;;;4.80;99.90;;;;;;8464378;28;19912;-65
2021/11/18 02:46:15;;;;;;;;;;;4.70;99.90;;;;;;8464972;28;20418;-65
2021/11/18 02:50:18;;;;;;;;;;;4.70;99.90;;;;;;8429866;28;19983;-65
2021/11/18 02:54:18;;;;;;;;;;;4.80;99.90;;;;;;8412661;28;20292;-65
2021/11/18 02:58:20;;;;;;;;;;;4.70;99.90;;;;;;8396031;28;19915;-65
2021/11/18 03:02:20;;;;;;;;;;;4.60;99.90;;;;;;8396297;28;19955;-65
2021/11/18 03:06:21;;;;;;;;;;;4.60;99.90;;;;;;8414918;28;19916;-65
2021/11/18 03:10:22;;;;;;;;;;;4.80;99.90;;;;;;8429371;28;20366;-65
2021/11/18 03:14:22;;;;;;;;;;;4.80;99.90;;;;;;8430124;28;20402;-65
2021/11/18 03:18:23;;;;;;;;;;;4.80;99.90;;;;;;8450846;22;19928;-64
2021/11/18 03:22:24;;;;;;;;;;;4.70;99.90;;;;;;8426759;28;19924;-64
2021/11/18 03:26:28;;;;;;;;;;;4.70;99.90;;;;;;8396223;28;20332;-65
2021/11/18 03:30:33;;;;;;;;;;;4.60;99.90;;;;;;8377974;28;19908;-64
2021/11/18 03:34:34;;;;;;;;;;;4.40;99.90;;;;;;8395629;28;19915;-65
2021/11/18 03:38:35;;;;;;;;;;;4.60;99.90;;;;;;8396061;28;19909;-64
2021/11/18 03:42:35;;;;;;;;;;;4.60;99.90;;;;;;8396137;28;19920;-64
2021/11/18 03:46:38;;;;;;;;;;;4.80;99.90;;;;;;8395651;28;19916;-64
2021/11/18 03:50:38;;;;;;;;;;;4.70;99.90;;;;;;8401234;28;19912;-64
2021/11/18 03:54:40;;;;;;;;;;;4.80;99.90;;;;;;8419786;28;19955;-64
2021/11/18 03:58:41;;;;;;;;;;;4.80;99.90;;;;;;8428691;28;19943;-65
2021/11/18 04:02:42;;;;;;;;;;;4.90;99.90;;;;;;8427759;28;19922;-64
2021/11/18 04:06:42;;;;;;;;;;;4.80;99.90;;;;;;8425344;28;20373;-64
2021/11/18 04:10:43;;;;;;;;;;;5.00;99.90;;;;;;8427419;28;19908;-64
2021/11/18 04:14:43;;;;;;;;;;;4.70;99.90;;;;;;8428076;28;19912;-65
2021/11/18 04:18:44;;;;;;;;;;;4.60;99.90;;;;;;8409857;28;19916;-64
2021/11/18 04:22:45;;;;;;;;;;;4.80;99.90;;;;;;8427004;28;20373;-64
2021/11/18 04:26:46;;;;;;;;;;;4.60;99.90;;;;;;8419425;28;19908;-64
2021/11/18 04:30:49;;;;;;;;;;;4.50;99.90;;;;;;8427517;28;19947;-64
2021/11/18 04:34:50;;;;;;;;;;;4.50;99.90;;;;;;8427951;28;20353;-64
2021/11/18 04:38:53;;;;;;;;;;;4.40;99.90;;;;;;8430116;28;20297;-64
2021/11/18 04:42:54;;;;;;;;;;;4.70;99.90;;;;;;8432826;28;20269;-64
2021/11/18 04:46:54;;;;;;;;;;;4.70;99.90;;;;;;8423629;28;19934;-64
2021/11/18 04:50:55;;;;;;;;;;;4.60;99.90;;;;;;8408083;28;19961;-64
2021/11/18 04:54:56;;;;;;;;;;;4.40;99.90;;;;;;8427326;28;19916;-64
2021/11/18 04:58:57;;;;;;;;;;;4.60;99.90;;;;;;8426948;28;19961;-65
2021/11/18 05:02:58;;;;;;;;;;;4.70;99.90;;;;;;8422047;28;19927;-64
2021/11/18 05:06:58;;;;;;;;;;;4.80;99.90;;;;;;8425885;28;19999;-65
2021/11/18 05:10:59;;;;;;;;;;;4.60;99.90;;;;;;8412396;28;20289;-64
2021/11/18 05:15:00;;;;;;;;;;;4.60;99.90;;;;;;8413238;28;19973;-64
2021/11/18 05:19:00;;;;;;;;;;;4.60;99.90;;;;;;8418372;28;19923;-65
2021/11/18 05:23:01;;;;;;;;;;;4.80;99.90;;;;;;8407872;28;19917;-65
2021/11/18 05:27:01;;;;;;;;;;;4.70;99.90;;;;;;8419585;28;19920;-64
2021/11/18 05:31:02;;;;;;;;;;;4.80;99.90;;;;;;8396671;28;20382;-64
2021/11/18 05:35:03;;;;;;;;;;;4.60;99.90;;;;;;8402445;28;20370;-64
2021/11/18 05:39:04;;;;;;;;;;;4.30;99.90;;;;;;8418876;28;19999;-64
2021/11/18 05:43:06;;;;;;;;;;;4.40;99.90;;;;;;8404743;28;19916;-64
2021/11/18 05:47:07;;;;;;;;;;;4.30;99.90;;;;;;8426131;28;20551;-64
2021/11/18 05:51:09;;;;;;;;;;;4.20;99.90;;;;;;8417197;28;19965;-64
2021/11/18 05:55:10;;;;;;;;;;;4.50;99.90;;;;;;8416120;28;20324;-64
2021/11/18 05:59:11;;;;;;;;;;;4.40;99.90;;;;;;8394577;28;19958;-65
2021/11/18 06:03:12;;;;;;;;;;;4.30;99.90;;;;;;8398285;28;20393;-64
2021/11/18 06:07:12;;;;;;;;;;;4.40;99.90;;;;;;8423407;28;19908;-64
2021/11/18 06:11:14;;;;;;;;;;;4.40;99.90;;;;;;8406564;28;19959;-64
2021/11/18 06:15:15;;;;;;;;;;;4.40;99.90;;;;;;8404770;28;19912;-65
2021/11/18 06:19:15;;;;;;;;;;;4.30;99.90;;;;;;8428221;28;20044;-65
2021/11/18 06:23:17;;;;;;;;;;;4.30;99.90;;;;;;8430356;28;19955;-64
2021/11/18 06:27:17;;;;;;;;;;;4.50;99.90;;;;;;8414444;28;20362;-64
2021/11/18 06:31:18;;;;;;;;;;;4.80;99.90;;;;;;8421267;28;19977;-66
2021/11/18 06:35:19;;;;;;;;;;;4.70;99.90;;;;;;8420670;28;19909;-67
2021/11/18 06:39:19;;;;;;;;;;;4.90;99.90;;;;;;8397983;28;19912;-65
2021/11/18 06:43:20;;;;;;;;;;;4.70;99.90;;;;;;8392483;28;19952;-64
2021/11/18 06:47:21;;;;;;;;;;;4.70;99.90;;;;;;8416468;28;19912;-65
2021/11/18 06:51:23;;;;;;;;;;;4.70;99.90;;;;;;8426441;28;20324;-64
2021/11/18 06:55:23;;;;;;;;;;;4.50;99.90;;;;;;8396787;28;20285;-63
2021/11/18 06:59:24;;;;;;;;;;;4.60;99.90;;;;;;8414653;28;19919;-63
2021/11/18 07:03:24;;;;;;;;;;;4.70;99.90;;;;;;8395986;28;20208;-64
2021/11/18 07:07:25;;;;;;;;;;;4.80;99.90;;;;;;8425232;28;19919;-64
2021/11/18 07:11:26;;;;;;;;;;;4.90;99.90;;;;;;8422844;28;19912;-64
2021/11/18 07:15:27;;;;;;;;;;;4.90;99.90;;;;;;8427281;28;19919;-64
2021/11/18 07:19:28;;;;;;;;;;;4.80;99.90;;;;;;8428280;28;19920;-63
2021/11/18 07:23:29;;;;;;;;;;;4.80;99.90;;;;;;8425777;28;19920;-64
2021/11/18 07:27:29;;;;;;;;;;;5.20;99.90;;;;;;8406693;28;20290;-64
2021/11/18 07:31:30;;;;;;;;;;;5.30;99.90;;;;;;8419290;28;19965;-64
2021/11/18 07:35:31;;;;;;;;;;;5.10;99.90;;;;;;8416175;28;20396;-64
2021/11/18 07:39:31;;;;;;;;;;;5.10;99.90;;;;;;8408378;28;19920;-65
2021/11/18 07:43:34;;;;;;;;;;;5.10;99.90;;;;;;8422113;28;19924;-63
2021/11/18 07:47:34;;;;;;;;;;;5.40;99.90;;;;;;8404831;28;19934;-65
2021/11/18 07:51:37;;;;;;;;;;;5.30;99.90;;;;;;8396225;28;19913;-64
2021/11/18 07:55:38;;;;;;;;;;;5.60;99.90;;;;;;8386229;28;19965;-64
2021/11/18 07:59:38;;;;;;;;;;;5.50;99.90;;;;;;8374679;28;19939;-63
2021/11/18 08:03:39;;;;;;;;;;;5.80;99.90;;;;;;8400265;28;20003;-64
2021/11/18 08:07:40;;;;;;;;;;;6.00;99.90;;;;;;8419933;28;19916;-65
2021/11/18 08:11:42;;;;;;;;;;;6.10;99.90;;;;;;8408518;28;19912;-65
2021/11/18 08:15:43;;;;;;;;;;;6.10;99.90;;;;;;8394799;28;19912;-65
2021/11/18 08:19:43;;;;;;;;;;;6.20;99.90;;;;;;8407265;28;19970;-64
2021/11/18 08:23:44;;;;;;;;;;;6.40;99.90;;;;;;8422856;28;19916;-66
2021/11/18 08:27:45;;;;;;;;;;;6.40;99.90;;;;;;8427289;28;20384;-64
2021/11/18 08:31:47;;;;;;;;;;;6.40;99.90;;;;;;8423106;28;19923;-66
2021/11/18 08:35:47;;;;;;;;;;;6.60;99.90;;;;;;8418015;28;19912;-64
2021/11/18 08:39:48;;;;;;;;;;;6.60;99.90;;;;;;8414240;28;19943;-64
2021/11/18 08:43:51;;;;;;;;;;;6.70;99.90;;;;;;8414725;28;20298;-65
2021/11/18 08:47:52;;;;;;;;;;;6.70;99.90;;;;;;8400788;28;19927;-65
2021/11/18 08:51:53;;;;;;;;;;;6.80;99.90;;;;;;8412143;28;19913;-65
2021/11/18 08:55:53;;;;;;;;;;;6.80;99.90;;;;;;8393104;28;19932;-65
2021/11/18 08:59:54;;;;;;;;;;;7.00;99.90;;;;;;8420423;28;19912;-65
2021/11/18 09:03:55;;;;;;;;;;;7.00;99.90;;;;;;8420230;28;19923;-65
2021/11/18 09:07:56;;;;;;;;;;;7.20;99.90;;;;;;8393845;28;20413;-64
2021/11/18 09:11:57;;;;;;;;;;;7.10;99.90;;;;;;8414226;28;19926;-64
2021/11/18 09:15:58;;;;;;;;;;;7.20;99.90;;;;;;8410711;28;20242;-65
2021/11/18 09:19:58;;;;;;;;;;;7.30;99.90;;;;;;8425908;22;20373;-60
2021/11/18 09:24:05;;;;;;;;;;;7.40;99.90;;;;;;8434648;28;20282;-60
2021/11/18 09:28:06;;;;;;;;;;;7.70;99.90;;;;;;8454935;28;20010;-60
2021/11/18 09:32:07;;;;;;;;;;;7.80;99.90;;;;;;8438695;28;20404;-60
2021/11/18 09:36:08;;;;;;;;;;;8.20;99.90;;;;;;8463892;28;19908;-60
2021/11/18 09:40:11;;;;;;;;;;;8.70;99.90;;;;;;8446564;28;19919;-60
2021/11/18 09:44:24;;;;;;;;;;;8.80;99.90;;;;;;8461630;28;19920;-60
2021/11/18 09:48:30;;;;;;;;;;;8.50;99.90;;;;;;8454405;28;19919;-60
2021/11/18 09:52:49;;;;;;;;;;;8.40;99.90;;;;;;8413355;28;19916;-60
2021/11/18 09:57:08;;;;;;;;;;;8.10;99.90;;;;;;8412342;28;20465;-60
2021/11/18 10:01:18;;;;;;;;;;;7.90;99.90;;;;;;8390544;28;19912;-60
2021/11/18 10:05:31;;;;;;;;;;;7.90;99.90;;;;;;8417712;28;19923;-60
2021/11/18 10:09:51;;;;;;;;;;;8.00;99.90;;;;;;8422549;28;20022;-60
2021/11/18 10:14:01;;;;;;;;;;;8.00;99.90;;;;;;8413787;28;19919;-60
2021/11/18 10:18:06;;;;;;;;;;;8.10;99.90;;;;;;8404834;28;19921;-61
2021/11/18 10:22:10;;;;;;;;;;;8.10;99.90;;;;;;8408328;28;20431;-61
2021/11/18 10:26:14;;;;;;;;;;;8.30;99.90;;;;;;8412586;28;19939;-60
2021/11/18 10:30:18;;;;;;;;;;;8.50;99.90;;;;;;8419042;28;19916;-59
2021/11/18 10:34:29;;;;;;;;;;;8.90;99.90;;;;;;8415286;28;19912;-59
2021/11/18 10:38:33;;;;;;;;;;;9.20;99.90;;;;;;8416983;28;19938;-59
2021/11/18 10:42:36;;;;;;;;;;;9.40;99.90;;;;;;8408142;28;19927;-60
2021/11/18 10:46:38;;;;;;;;;;;9.20;99.90;;;;;;8410399;28;20374;-59
2021/11/18 10:50:48;;;;;;;;;;;9.00;99.90;;;;;;8411328;28;20393;-60
2021/11/18 10:54:57;;;;;;;;;;;8.60;99.90;;;;;;8425081;28;19916;-58
2021/11/18 10:59:06;;;;;;;;;;;8.70;99.90;;;;;;8417767;28;20133;-60
2021/11/18 11:03:25;;;;;;;;;;;8.80;99.90;;;;;;8416415;28;19978;-60
2021/11/18 11:07:37;;;;;;;;;;;9.00;99.90;;;;;;8448221;28;19956;-60
2021/11/18 11:11:40;;;;;;;;;;;9.00;99.90;;;;;;8454119;28;19919;-60
2021/11/18 11:15:50;;;;;;;;;;;8.70;99.90;;;;;;8440878;28;19912;-60
2021/11/18 11:19:56;;;;;;;;;;;8.90;99.90;;;;;;8457145;28;20410;-60
2021/11/18 11:24:22;;;;;;;;;;;8.90;99.90;;;;;;8456664;28;20380;-60
2021/11/18 11:28:25;;;;;;;;;;;8.90;99.90;;;;;;8447379;28;19916;-60
2021/11/18 11:32:30;;;;;;;;;;;8.90;99.90;;;;;;8429153;28;19942;-61
2021/11/18 11:36:33;;;;;;;;;;;9.00;99.90;;;;;;8414159;28;19927;-58
2021/11/18 11:40:53;;;;;;;;;;;9.10;99.90;;;;;;8414499;28;19920;-60
2021/11/18 11:45:12;;;;;;;;;;;9.40;99.90;;;;;;8413816;28;19912;-60
2021/11/18 11:49:31;;;;;;;;;;;9.00;99.90;;;;;;8393720;28;19934;-60
2021/11/18 11:53:34;;;;;;;;;;;8.70;99.90;;;;;;8429020;28;21762;-60
2021/11/18 11:57:43;;;;;;;;;;;8.60;99.90;;;;;;8450708;28;19927;-59
2021/11/18 12:01:51;;;;;;;;;;;8.70;99.90;;;;;;8459197;28;20379;-60
2021/11/18 12:06:01;;;;;;;;;;;9.10;99.90;;;;;;8460103;28;19915;-59
2021/11/18 12:10:13;;;;;;;;;;;9.60;99.90;;;;;;8452633;28;19918;-60
2021/11/18 12:14:19;;;;;;;;;;;10.00;99.90;;;;;;8458138;28;19923;-60
2021/11/18 12:18:22;;;;;;;;;;;10.20;99.90;;;;;;8411947;28;19965;-60
2021/11/18 12:22:38;;;;;;;;;;;10.10;99.90;;;;;;8401991;28;19986;-60
2021/11/18 12:26:44;;;;;;;;;;;10.00;99.90;;;;;;8406585;28;19923;-61
2021/11/18 12:30:47;;;;;;;;;;;9.80;99.90;;;;;;8403408;28;20370;-60
2021/11/18 12:34:53;;;;;;;;;;;10.00;99.90;;;;;;8412262;28;19995;-59
2021/11/18 12:38:54;;;;;;;;;;;9.70;99.90;;;;;;8383678;28;20049;-60
2021/11/18 12:42:59;;;;;;;;;;;9.70;99.90;;;;;;8401069;28;20002;-60
2021/11/18 12:47:08;;;;;;;;;;;9.20;99.90;;;;;;8411168;28;20336;-60
2021/11/18 12:51:18;;;;;;;;;;;9.20;99.90;;;;;;8409332;28;20334;-60
2021/11/18 12:55:33;;;;;;;;;;;9.00;99.90;;;;;;8386066;28;21225;-59
2021/11/18 12:59:42;;;;;;;;;;;9.10;99.90;;;;;;8407562;28;19924;-60
2021/11/18 13:03:46;;;;;;;;;;;9.40;99.90;;;;;;8408039;28;19916;-61
2021/11/18 13:07:47;;;;;;;;;;;9.70;99.90;;;;;;8421232;28;19915;-60
2021/11/18 13:11:56;;;;;;;;;;;10.00;99.90;;;;;;8414975;28;19919;-60
2021/11/18 13:15:57;;;;;;;;;;;9.90;99.90;;;;;;8418473;28;19927;-60
2021/11/18 13:20:06;;;;;;;;;;;10.20;99.90;;;;;;8397548;28;19916;-60
2021/11/18 13:24:07;;;;;;;;;;;10.50;99.90;;;;;;8411987;28;19962;-60
2021/11/18 13:28:15;;;;;;;;;;;10.50;99.90;;;;;;8407312;28;20403;-60
2021/11/18 13:32:16;;;;;;;;;;;10.70;99.90;;;;;;8418918;28;19927;-60
2021/11/18 13:36:20;;;;;;;;;;;11.30;99.90;;;;;;8398701;28;19916;-60
2021/11/18 13:40:25;;;;;;;;;;;12.10;99.90;;;;;;8401017;28;19913;-60
2021/11/18 13:44:37;;;;;;;;;;;11.50;99.90;;;;;;8424664;28;19923;-60
2021/11/18 13:48:49;;;;;;;;;;;11.40;99.90;;;;;;8422907;28;20049;-60
2021/11/18 13:53:02;;;;;;;;;;;10.60;99.90;;;;;;8405964;28;19912;-60
2021/11/18 13:57:28;;;;;;;;;;;10.10;99.90;;;;;;8403846;28;19916;-59
2021/11/18 14:01:33;;;;;;;;;;;9.60;99.90;;;;;;8409453;28;19912;-60
2021/11/18 14:05:36;;;;;;;;;;;9.50;99.90;;;;;;8388809;28;20390;-60
2021/11/18 14:09:38;;;;;;;;;;;9.50;99.90;;;;;;8407870;28;20268;-58
2021/11/18 14:13:45;;;;;;;;;;;9.40;99.90;;;;;;8424675;28;19908;-59
2021/11/18 14:17:57;;;;;;;;;;;9.30;99.90;;;;;;8399339;28;19920;-60
2021/11/18 14:22:08;;;;;;;;;;;9.40;99.90;;;;;;8406447;28;19916;-60
2021/11/18 14:26:33;;;;;;;;;;;9.20;99.90;;;;;;8421464;28;19909;-60
2021/11/18 14:30:35;;;;;;;;;;;9.00;99.90;;;;;;8413570;28;20324;-60
2021/11/18 14:34:52;;;;;;;;;;;8.60;99.90;;;;;;8407837;28;19909;-60
2021/11/18 14:38:52;;;;;;;;;;;8.50;99.90;;;;;;8405714;28;19920;-60
2021/11/18 14:42:55;;;;;;;;;;;8.20;99.90;;;;;;8413735;28;19917;-60
2021/11/18 14:46:55;;;;;;;;;;;8.20;99.90;;;;;;8415240;28;20289;-65
2021/11/18 14:50:58;;;;;;;;;;;8.20;99.90;;;;;;8388169;28;19920;-66
2021/11/18 14:55:16;;;;;;;;;;;8.00;99.90;;;;;;8399246;28;19908;-65
2021/11/18 14:59:19;;;;;;;;;;;7.90;99.90;;;;;;8408281;28;20351;-61
2021/11/18 15:03:24;;;;;;;;;;;7.70;99.90;;;;;;8415859;28;19927;-61
2021/11/18 15:07:26;;;;;;;;;;;7.50;99.90;;;;;;8409561;28;19916;-61
2021/11/18 15:11:31;;;;;;;;;;;7.20;99.90;;;;;;8412076;28;19915;-62
2021/11/18 15:15:31;;;;;;;;;;;7.20;99.90;;;;;;8412617;28;20010;-61
2021/11/18 15:19:33;;;;;;;;;;;7.20;99.90;;;;;;8417123;28;20385;-61
2021/11/18 15:23:34;;;;;;;;;;;6.80;99.90;;;;;;8492402;22;20022;-64
2021/11/18 15:27:35;;;;;;;;;;;6.00;99.90;;;;;;8403095;28;19908;-64
2021/11/18 15:31:37;;;;;;;;;;;5.50;99.90;;;;;;8416043;28;20293;-64
2021/11/18 15:35:37;;;;;;;;;;;5.40;99.90;;;;;;8403920;28;19912;-64
2021/11/18 15:39:38;;;;;;;;;;;5.50;99.90;;;;;;8399971;28;19924;-64
2021/11/18 15:43:38;;;;;;;;;;;5.50;99.90;;;;;;8401401;28;19920;-63
2021/11/18 15:47:39;;;;;;;;;;;5.40;99.90;;;;;;8398946;28;19998;-64
2021/11/18 15:51:40;;;;;;;;;;;5.20;99.90;;;;;;8397222;28;19919;-63
2021/11/18 15:55:43;;;;;;;;;;;5.00;99.90;;;;;;8393432;28;19921;-63
2021/11/18 15:59:45;;;;;;;;;;;4.80;99.90;;;;;;8406483;28;19919;-63
2021/11/18 16:03:45;;;;;;;;;;;5.00;99.90;;;;;;8385351;28;19920;-63
2021/11/18 16:07:53;;;;;;;;;;;4.70;99.90;;;;;;8399173;28;19908;-64
2021/11/18 16:11:54;;;;;;;;;;;4.40;99.90;;;;;;8379094;28;19952;-64
2021/11/18 16:15:55;;;;;;;;;;;4.30;99.90;;;;;;8396190;28;19913;-63
2021/11/18 16:19:55;;;;;;;;;;;4.10;99.90;;;;;;8406778;28;20390;-64
2021/11/18 16:23:56;;;;;;;;;;;4.10;99.90;;;;;;8396882;28;19999;-64
2021/11/18 16:27:57;;;;;;;;;;;4.30;99.90;;;;;;8392425;28;20299;-63
2021/11/18 16:31:59;;;;;;;;;;;4.00;99.90;;;;;;8410359;28;19916;-67
2021/11/18 16:36:00;;;;;;;;;;;3.80;99.90;;;;;;8384149;28;20147;-65
2021/11/18 16:40:03;;;;;;;;;;;3.80;99.90;;;;;;8393452;28;19912;-65
2021/11/18 16:44:04;;;;;;;;;;;3.70;99.90;;;;;;8380728;28;19916;-66
2021/11/18 16:48:04;;;;;;;;;;;3.50;99.90;;;;;;8393583;28;19938;-66
2021/11/18 16:52:11;;;;;;;;;;;3.40;99.90;;;;;;8385938;28;19985;-65
2021/11/18 16:56:13;;;;;;;;;;;3.60;99.90;;;;;;8383087;28;19912;-65
2021/11/18 17:00:18;;;;;;;;;;;3.30;99.90;;;;;;8409393;28;19908;-65
2021/11/18 17:04:19;;;;;;;;;;;3.20;99.90;;;;;;8394006;28;19920;-65
2021/11/18 17:08:20;;;;;;;;;;;3.00;99.90;;;;;;8414380;28;19908;-65
2021/11/18 17:12:20;;;;;;;;;;;2.90;99.90;;;;;;8372503;28;19916;-66
2021/11/18 17:16:21;;;;;;;;;;;2.90;99.90;;;;;;8388616;28;19916;-66
2021/11/18 17:20:22;;;;;;;;;;;2.80;99.90;;;;;;8399814;28;19916;-67
2021/11/18 17:24:23;;;;;;;;;;;2.80;99.90;;;;;;8388155;28;19924;-65
2021/11/18 17:28:24;;;;;;;;;;;2.70;99.90;;;;;;8397057;28;19912;-65
2021/11/18 17:32:26;;;;;;;;;;;2.60;99.90;;;;;;8417206;28;19923;-66
2021/11/18 17:36:30;;;;;;;;;;;2.50;99.90;;;;;;8395785;28;20394;-65
2021/11/18 17:40:32;;;;;;;;;;;2.60;99.90;;;;;;8350350;28;20437;-65
2021/11/18 17:44:32;;;;;;;;;;;2.70;99.90;;;;;;8378792;28;19966;-66
2021/11/18 17:48:35;;;;;;;;;;;2.50;99.90;;;;;;8387340;28;19917;-66
2021/11/18 17:52:40;;;;;;;;;;;2.50;99.90;;;;;;8370612;28;19920;-66
2021/11/18 17:56:42;;;;;;;;;;;2.40;99.90;;;;;;8404090;28;19912;-65
2021/11/18 18:00:45;;;;;;;;;;;2.30;99.90;;;;;;8425426;28;20390;-65
2021/11/18 18:04:46;;;;;;;;;;;2.40;99.90;;;;;;8400080;28;20339;-65
2021/11/18 18:08:47;;;;;;;;;;;2.40;99.90;;;;;;8384212;28;19920;-65
2021/11/18 18:12:48;;;;;;;;;;;2.30;99.90;;;;;;8389335;28;19925;-66
2021/11/18 18:16:53;;;;;;;;;;;2.10;99.90;;;;;;8411927;28;19912;-65
2021/11/18 18:20:54;;;;;;;;;;;2.10;99.90;;;;;;8408713;28;19923;-66
2021/11/18 18:24:56;;;;;;;;;;;2.10;99.90;;;;;;8397152;28;19982;-66
2021/11/18 18:28:57;;;;;;;;;;;2.00;99.90;;;;;;8380741;28;19918;-66
2021/11/18 18:32:58;;;;;;;;;;;1.80;99.90;;;;;;8377665;28;19920;-66
2021/11/18 18:36:59;;;;;;;;;;;1.80;99.90;;;;;;8414134;28;19920;-66
2021/11/18 18:41:01;;;;;;;;;;;2.20;99.90;;;;;;8384778;28;19912;-66
2021/11/18 18:45:03;;;;;;;;;;;2.00;99.90;;;;;;8395206;28;19995;-66
2021/11/18 18:49:05;;;;;;;;;;;1.80;99.90;;;;;;8387793;28;19919;-66
2021/11/18 18:53:06;;;;;;;;;;;1.70;99.90;;;;;;8386863;28;19916;-66
2021/11/18 18:57:07;;;;;;;;;;;1.70;99.90;;;;;;8404018;28;20007;-65
2021/11/18 19:01:29;;;;;;;;;;;1.70;99.90;;;;;;8386495;28;19916;-66
2021/11/18 19:05:29;;;;;;;;;;;1.80;99.90;;;;;;8400123;28;19973;-66
2021/11/18 19:09:31;;;;;;;;;;;1.70;99.90;;;;;;8404984;28;19908;-66
2021/11/18 19:13:34;;;;;;;;;;;1.70;99.90;;;;;;8393383;28;20402;-66
2021/11/18 19:17:35;;;;;;;;;;;1.90;99.90;;;;;;8369043;28;20431;-66
2021/11/18 19:21:36;;;;;;;;;;;1.70;99.90;;;;;;8408000;28;19918;-66
2021/11/18 19:25:45;;;;;;;;;;;1.60;99.90;;;;;;8407429;28;19920;-67
2021/11/18 19:33:50;;;;;;;;;;;1.40;99.90;;;;;;8426159;28;19934;-66
2021/11/18 19:37:53;;;;;;;;;;;1.50;99.90;;;;;;8418872;28;20003;-66
2021/11/18 19:41:56;;;;;;;;;;;1.30;99.90;;;;;;8392212;28;19912;-66
2021/11/18 19:46:00;;;;;;;;;;;1.20;99.90;;;;;;8392328;28;19912;-66
2021/11/18 19:50:01;;;;;;;;;;;1.20;99.90;;;;;;8392127;28;19912;-68
2021/11/18 19:54:02;;;;;;;;;;;1.30;99.90;;;;;;8374213;28;19943;-66
2021/11/18 19:58:04;;;;;;;;;;;1.30;99.90;;;;;;8363372;28;19915;-66
2021/11/18 20:02:05;;;;;;;;;;;1.40;99.90;;;;;;8373507;28;19913;-66
2021/11/18 20:06:06;;;;;;;;;;;1.60;99.90;;;;;;8391775;28;19961;-66
2021/11/18 20:10:07;;;;;;;;;;;1.40;99.90;;;;;;8372687;28;20006;-66
2021/11/18 20:14:08;;;;;;;;;;;1.30;99.90;;;;;;8368420;28;20035;-66
2021/11/18 20:18:09;;;;;;;;;;;1.30;99.90;;;;;;8390402;28;19913;-66
2021/11/18 20:22:12;;;;;;;;;;;1.20;99.90;;;;;;8389286;28;19970;-66
2021/11/18 20:26:12;;;;;;;;;;;1.00;99.90;;;;;;8389797;28;19917;-66
2021/11/18 20:30:16;;;;;;;;;;;0.90;99.90;;;;;;8390748;28;19965;-66
2021/11/18 20:34:19;;;;;;;;;;;1.10;99.90;;;;;;8389407;28;19998;-66
2021/11/18 20:38:20;;;;;;;;;;;0.80;99.90;;;;;;8389840;28;19912;-66
2021/11/18 20:42:21;;;;;;;;;;;0.60;99.90;;;;;;8390320;28;19983;-66
2021/11/18 20:46:22;;;;;;;;;;;0.50;99.90;;;;;;8386477;28;20278;-66
2021/11/18 20:50:26;;;;;;;;;;;0.60;99.90;;;;;;8371697;28;20027;-66
2021/11/18 20:54:27;;;;;;;;;;;0.40;99.90;;;;;;8390273;28;19913;-66
2021/11/18 20:58:28;;;;;;;;;;;0.60;99.90;;;;;;8389843;28;19909;-66
2021/11/18 21:02:30;;;;;;;;;;;0.80;99.90;;;;;;8387455;28;19920;-66
2021/11/18 21:06:30;;;;;;;;;;;0.70;99.90;;;;;;8389736;28;19913;-66
2021/11/18 21:10:31;;;;;;;;;;;0.80;99.90;;;;;;8391744;28;20011;-67
2021/11/18 21:14:32;;;;;;;;;;;0.70;99.90;;;;;;8407549;28;19960;-66
2021/11/18 21:18:33;;;;;;;;;;;0.70;99.90;;;;;;8378124;28;19985;-65
2021/11/18 21:22:36;;;;;;;;;;;0.80;99.90;;;;;;8387574;28;20386;-66
2021/11/18 21:26:37;;;;;;;;;;;0.80;99.90;;;;;;8395676;28;19920;-65
2021/11/18 21:30:44;;;;;;;;;;;0.70;99.90;;;;;;8372758;28;19917;-65
2021/11/18 21:34:46;;;;;;;;;;;0.60;99.90;;;;;;8353480;28;19970;-66
2021/11/18 21:38:47;;;;;;;;;;;0.60;99.90;;;;;;8374482;28;19913;-66
2021/11/18 21:42:48;;;;;;;;;;;0.40;99.90;;;;;;8404384;28;19993;-66
2021/11/18 21:46:51;;;;;;;;;;;0.50;99.90;;;;;;8378186;28;19967;-65
2021/11/18 21:50:54;;;;;;;;;;;0.50;99.90;;;;;;8396710;28;19959;-66
2021/11/18 21:54:59;;;;;;;;;;;0.50;99.90;;;;;;8404067;28;20410;-66
2021/11/18 21:59:06;;;;;;;;;;;0.40;99.90;;;;;;8404824;28;19947;-66
2021/11/18 22:03:09;;;;;;;;;;;0.50;99.90;;;;;;8412245;28;19916;-66
2021/11/18 22:07:20;;;;;;;;;;;0.50;99.90;;;;;;8401400;28;19965;-66
2021/11/18 22:11:21;;;;;;;;;;;0.50;99.90;;;;;;8397457;28;19916;-65
2021/11/18 22:15:22;;;;;;;;;;;0.50;99.90;;;;;;8384295;28;19995;-65
2021/11/18 22:19:24;;;;;;;;;;;0.30;99.90;;;;;;8409175;28;19945;-65
2021/11/18 22:23:25;;;;;;;;;;;0.20;99.90;;;;;;8386230;28;19927;-65
2021/11/18 22:27:26;;;;;;;;;;;0.60;99.90;;;;;;8404741;28;19946;-65
2021/11/18 22:31:30;;;;;;;;;;;0.40;99.90;;;;;;8386101;28;19965;-65
2021/11/18 22:35:31;;;;;;;;;;;0.30;99.90;;;;;;8386486;28;19958;-65
2021/11/18 22:39:34;;;;;;;;;;;0.30;99.90;;;;;;8398130;28;19916;-65
2021/11/18 22:43:34;;;;;;;;;;;0.20;99.90;;;;;;8409234;28;19916;-65
2021/11/18 22:47:35;;;;;;;;;;;0.20;99.90;;;;;;8410740;22;19925;-65
2021/11/18 22:51:36;;;;;;;;;;;0.30;99.90;;;;;;8411278;28;19916;-65
2021/11/18 22:55:36;;;;;;;;;;;0.40;99.90;;;;;;8413429;28;20002;-65
2021/11/18 22:59:37;;;;;;;;;;;0.30;99.90;;;;;;8426178;28;20190;-65
2021/11/18 23:03:39;;;;;;;;;;;0.20;99.90;;;;;;8422397;28;20508;-65
2021/11/18 23:07:40;;;;;;;;;;;0.20;99.90;;;;;;8425775;28;20271;-64
2021/11/18 23:11:41;;;;;;;;;;;0.30;99.90;;;;;;8423530;28;19912;-64
2021/11/18 23:15:42;;;;;;;;;;;0.10;99.90;;;;;;8428233;28;19966;-65
2021/11/18 23:19:43;;;;;;;;;;;0.20;99.90;;;;;;8429733;28;19908;-65
2021/11/18 23:23:44;;;;;;;;;;;0.10;99.90;;;;;;8430195;28;19912;-65
2021/11/18 23:27:45;;;;;;;;;;;0.00;99.90;;;;;;8430414;28;19908;-64
2021/11/18 23:31:46;;;;;;;;;;;0.10;99.90;;;;;;8429840;28;19992;-65
2021/11/18 23:35:47;;;;;;;;;;;0.10;99.90;;;;;;8429968;28;19908;-65
2021/11/18 23:39:47;;;;;;;;;;;0.10;99.90;;;;;;8397565;28;19909;-65
2021/11/18 23:43:48;;;;;;;;;;;0.00;99.90;;;;;;8396144;28;19955;-65
2021/11/18 23:47:49;;;;;;;;;;;0.10;99.90;;;;;;8411311;28;19923;-65
2021/11/18 23:51:49;;;;;;;;;;;0.00;99.90;;;;;;8428413;28;19931;-65
2021/11/18 23:55:50;;;;;;;;;;;-0.20;99.90;;;;;;8429103;28;19922;-64
2021/11/18 23:59:51;;;;;;;;;;;-0.20;99.90;;;;;;8428691;28;19911;-65
